Airfield :
LOGIN :

Register | Disclaimer

   EN    FR    IT 

 










Legend :    VFR   Marginal VFR   IFR   Intensive IFR   Very Intensive IFR
Visi :
Ceiling :
>= 8 km
>= 3000ft
5 to 8 km
1000 to 3000 ft
1500m to 5 km
500 to 1000 ft
800 to 1500m
200 to 500 ft
< 800m
< 200 ft
Symbols :   Thunderstorms  Fog  Heavy snow  Heavy precipitations  Wind > 20 kt
SIGMETs :     Misc.  Thunderstorms  Icing  Turbulence  Mountain Waves  Volcanic Ashes







- Airport Elevation : 909 ft
- IATA code : KSF


EDVK - Kassel Calden

CURRENT METAR :
  • 201350Z 29016KT 6000 VCTS SCT017 BKN021 16/13 Q1004

EXPIRED METARs :
  • 201320Z 30016KT 6000 -RA BKN017 16/14 Q1004
  • 201250Z 31017KT 6000 BKN017 17/13 Q1004
  • 201220Z 32016KT 7000 BKN016 17/13 Q1004
  • 201150Z 31017KT 8000 VCTS BKN017CB 17/13 Q1004
  • 201120Z 30017KT 8000 BKN015 18/14 Q1004

TAF TAF EDVK
Valid from the 20 at 12:00 until the 20 at 21:00 UTC


201100Z 2012/2021 32010KT 9999 SCT020
TEMPO 2012/2021 SHRA BKN015CB
PROB40
TEMPO 2012/2021 36015G35KT 3000 +TSRAGR BKN010 BKN015CB
No reported NOTAMs for that airfield.
4 SIGMETs reported for the Bremen FIR (EDWW) :
 
Embedded thunderstorms and hail
EDWW SIGMET 5 VALID 201415/201700 EDZF
EDWW BREMEN FIR EMBD TSGR OBS WI N5157 E01028 - N5153 E01145 - N5120 E01025 - N5120 E00845 - N5157 E01028 TOP FL360 MOV SSW 15KT NC=
SIGMET 1  cancelation
EDWW SIGMET 4 VALID 201343/201410 EDZF
EDWW BREMEN FIR CNL SIGMET 1 201211/201410=
Squall lined thunderstorms and hail
EDWW SIGMET 2 VALID 201335/201530 EDZF
EDWW BREMEN FIR SQL TSGR OBS S OF N5320 AND E OF E01330 TOP FL380 MOV W 20KT NC=
SIGMET 1  CANCELED :
Squall lined thunderstorms and hail
EDWW SIGMET 1 VALID 201335/201530 EDZF
EDWW BREMEN FIR SQL TSGR OBS S OF N5320 AND E OF E01330 TOP FL380 MOV W 20KT NC=



MET'MAP, your aeronautical weather chart ! - Copyright ORBIFLY December 2007 - Disclaimer

ORBIFLY MET'MAP TEAM :

Programming & Development : Alexandra Zaïnal
Concept & Development : Baudouin d'Aumeries
Co-Development & Prog : Marc-Olivier Méhu
Technical & hardware support : Manuel Goepfert

Contact : metmap@orbifly.com




SOURCES & CREDITS :

   NOAA